Time;durP1;ratioP1;P1;durP2;ratioP2;P2;SDS_P1;SDS_P2;PMS_P1;PMS_P2;Temp;Humidity;BMP_temperature;BMP_pressure;BME280_temperature;BME280_humidity;BME280_pressure;Samples;Min_cycle;Max_cycle;Signal;HPM_P1;HPM_P2
2021/08/25 00:00:20;;;;;;;25.38;15.27;;;;;;;12.16;94.36;102921.78;5013338;28;20057;-73
2021/08/25 00:02:46;;;;;;;25.17;15.48;;;;;;;12.15;94.78;102920.94;5012577;28;20105;-72
2021/08/25 00:05:11;;;;;;;21.52;13.95;;;;;;;12.11;94.70;102910.56;5013198;28;20118;-73
2021/08/25 00:07:37;;;;;;;45.90;23.00;;;;;;;12.08;94.68;102913.44;5012485;28;20058;-73
2021/08/25 00:10:03;;;;;;;26.70;17.20;;;;;;;12.07;95.09;102909.03;4995479;28;20026;-72
2021/08/25 00:12:30;;;;;;;23.67;15.35;;;;;;;12.03;94.64;102907.50;5013007;28;20026;-73
2021/08/25 00:14:56;;;;;;;26.52;15.10;;;;;;;12.04;95.05;102917.25;5012251;28;20386;-72
2021/08/25 00:17:21;;;;;;;31.88;17.77;;;;;;;12.00;94.36;102911.22;5013131;28;20040;-72
2021/08/25 00:19:47;;;;;;;26.02;16.58;;;;;;;11.98;94.44;102905.13;4995104;28;20034;-72
2021/08/25 00:22:13;;;;;;;24.67;14.40;;;;;;;11.95;94.56;102902.66;5012929;28;20113;-72
2021/08/25 00:24:39;;;;;;;22.80;15.15;;;;;;;11.92;94.24;102901.00;5011706;28;20065;-73
2021/08/25 00:27:04;;;;;;;20.23;14.18;;;;;;;11.90;94.36;102894.94;5013057;28;20065;-72
2021/08/25 00:29:30;;;;;;;28.83;16.95;;;;;;;11.87;94.33;102888.91;4995000;28;20037;-73
2021/08/25 00:31:55;;;;;;;41.55;21.63;;;;;;;11.84;94.35;102884.66;5011902;28;20038;-73
2021/08/25 00:34:20;;;;;;;29.30;17.08;;;;;;;11.82;94.76;102884.75;5012618;28;20036;-72
2021/08/25 00:36:46;;;;;;;23.75;16.08;;;;;;;11.79;94.64;102881.41;5012181;28;20076;-73
2021/08/25 00:39:11;;;;;;;30.70;18.17;;;;;;;11.79;94.95;102884.94;5012683;28;20030;-73
2021/08/25 00:41:37;;;;;;;23.27;15.82;;;;;;;11.75;94.92;102883.44;5011971;28;20113;-73
2021/08/25 00:44:02;;;;;;;23.15;14.98;;;;;;;11.74;94.41;102883.53;5012281;28;20034;-73
2021/08/25 00:46:29;;;;;;;23.48;15.40;;;;;;;11.71;94.16;102873.91;5012544;28;20041;-72
2021/08/25 00:48:55;;;;;;;26.38;16.23;;;;;;;11.71;94.01;102879.22;4994274;28;20062;-72
2021/08/25 00:51:23;;;;;;;24.52;15.45;;;;;;;11.72;94.12;102870.28;5012547;28;20045;-73
2021/08/25 00:53:49;;;;;;;12.88;10.10;;;;;;;11.67;93.87;102877.69;5011282;28;20068;-73
2021/08/25 00:56:14;;;;;;;17.52;12.02;;;;;;;11.65;93.53;102876.97;5012680;28;20146;-73
2021/08/25 00:58:41;;;;;;;26.67;15.73;;;;;;;11.65;93.41;102882.28;5011778;28;20076;-74
2021/08/25 01:01:12;;;;;;;23.13;15.32;;;;;;;11.62;93.31;102879.81;5011986;28;20550;-73
2021/08/25 01:03:52;;;;;;;25.33;15.15;;;;;;;11.59;93.25;102872.00;5012597;28;20467;-73
2021/08/25 01:06:22;;;;;;;16.42;10.35;;;;;;;11.53;92.80;102867.91;4994820;28;20034;-73
2021/08/25 01:08:48;;;;;;;18.20;12.82;;;;;;;11.50;92.80;102873.44;5011996;28;20037;-73
2021/08/25 01:11:13;;;;;;;16.17;11.10;;;;;;;11.47;92.72;102871.81;4995156;28;20379;-73
2021/08/25 01:13:40;;;;;;;22.88;14.32;;;;;;;11.44;92.69;102869.34;5012085;28;20041;-73
2021/08/25 01:16:10;;;;;;;19.98;13.50;;;;;;;11.42;92.79;102865.03;5011968;28;20060;-73
2021/08/25 01:18:35;;;;;;;15.43;10.10;;;;;;;11.39;92.81;102874.13;5012332;28;20029;-73
2021/08/25 01:21:02;;;;;;;21.40;12.43;;;;;;;11.38;93.47;102866.22;5011597;28;20499;-73
2021/08/25 01:23:28;;;;;;;15.88;11.85;;;;;;;11.34;93.33;102862.00;5012208;28;20042;-73
2021/08/25 01:25:59;;;;;;;22.33;12.88;;;;;;;11.32;93.77;102862.13;5011157;28;20045;-73
2021/08/25 01:28:27;;;;;;;29.17;16.85;;;;;;;11.28;93.80;102860.56;5012360;28;20034;-73
2021/08/25 01:30:53;;;;;;;15.00;10.02;;;;;;;11.23;93.17;102865.34;5011489;28;20175;-73
2021/08/25 01:33:23;;;;;;;21.00;13.85;;;;;;;11.21;92.70;102862.78;5012133;28;20040;-73
2021/08/25 01:35:49;;;;;;;24.55;15.07;;;;;;;11.21;93.10;102860.13;5013170;28;20111;-73
2021/08/25 01:38:41;;;;;;;28.35;16.80;;;;;;;11.21;93.93;102859.22;5015986;28;20069;-73
2021/08/25 01:41:07;;;;;;;24.38;15.88;;;;;;;11.20;94.10;102862.88;5015425;28;20027;-73
2021/08/25 01:43:34;;;;;;;25.55;14.68;;;;;;;11.16;94.07;102854.19;5015765;28;20478;-73
2021/08/25 01:45:59;;;;;;;21.77;13.68;;;;;;;11.12;93.66;102855.31;4997562;28;20026;-73
2021/08/25 01:48:25;;;;;;;15.43;10.90;;;;;;;11.09;93.41;102852.84;5015843;28;20385;-73
2021/08/25 01:50:50;;;;;;;20.95;14.32;;;;;;;11.08;93.06;102852.00;5015112;28;20411;-73
2021/08/25 01:53:16;;;;;;;20.70;13.00;;;;;;;11.06;93.13;102845.91;5015238;28;20033;-73
2021/08/25 01:55:42;;;;;;;20.27;13.27;;;;;;;11.06;93.42;102845.91;5015574;28;20034;-73
2021/08/25 01:58:08;;;;;;;20.20;12.95;;;;;;;11.03;93.12;102846.09;5014710;28;20104;-72
2021/08/25 02:00:33;;;;;;;22.83;14.50;;;;;;;11.01;93.04;102836.50;5015176;28;20076;-73
2021/08/25 02:02:58;;;;;;;23.02;15.45;;;;;;;10.97;92.74;102835.78;5014526;28;20037;-73
2021/08/25 02:05:24;;;;;;;18.63;12.75;;;;;;;10.96;92.96;102830.56;5015126;28;20033;-73
2021/08/25 02:07:49;;;;;;;18.48;11.25;;;;;;;10.94;93.14;102828.88;5015017;28;20498;-73
2021/08/25 02:10:15;;;;;;;22.88;15.68;;;;;;;10.92;92.79;102829.91;5015393;28;20064;-73
2021/08/25 02:12:40;;;;;;;16.75;10.25;;;;;;;10.89;92.26;102830.94;5015200;28;20509;-73
2021/08/25 02:15:06;;;;;;;20.13;13.55;;;;;;;10.87;91.92;102832.00;5014680;28;20033;-73
2021/08/25 02:17:32;;;;;;;11.38;8.85;;;;;;;10.84;92.00;102819.72;5015172;28;20042;-73
2021/08/25 02:19:57;;;;;;;10.98;8.40;;;;;;;10.82;91.73;102820.75;5014293;28;20033;-72
2021/08/25 02:22:22;;;;;;;13.45;9.32;;;;;;;10.81;91.09;102819.03;5014807;28;20084;-73
2021/08/25 02:24:48;;;;;;;12.35;9.75;;;;;;;10.79;91.25;102815.63;5014800;28;20080;-73
2021/08/25 02:27:13;;;;;;;21.30;14.10;;;;;;;10.78;91.65;102814.78;5014480;28;20550;-73
2021/08/25 02:29:38;;;;;;;20.83;13.10;;;;;;;10.76;91.11;102824.63;5014991;28;20080;-73
2021/08/25 02:32:04;;;;;;;13.50;10.77;;;;;;;10.74;91.10;102815.91;5014156;28;20527;-73
2021/08/25 02:34:30;;;;;;;13.88;10.82;;;;;;;10.71;90.70;102816.09;5015129;28;20505;-73
2021/08/25 02:36:55;;;;;;;19.50;13.73;;;;;;;10.72;91.09;102818.66;5014597;28;20056;-73
2021/08/25 02:39:20;;;;;;;16.13;10.50;;;;;;;10.70;91.23;102807.25;5014933;28;20066;-73
2021/08/25 02:41:46;;;;;;;28.60;18.58;;;;;;;10.70;91.26;102811.69;5014419;28;20466;-72
2021/08/25 02:44:11;;;;;;;14.20;10.48;;;;;;;10.66;91.85;102811.03;5014018;28;20615;-73
2021/08/25 02:46:36;;;;;;;16.00;10.23;;;;;;;10.65;91.71;102811.13;5014790;28;20084;-72
2021/08/25 02:49:03;;;;;;;15.40;11.20;;;;;;;10.63;91.45;102808.56;5013860;28;20034;-73
2021/08/25 02:51:28;;;;;;;20.48;14.02;;;;;;;10.63;91.82;102803.22;5014807;28;20028;-73
2021/08/25 02:53:54;;;;;;;18.40;13.30;;;;;;;10.60;91.55;102800.75;5014315;28;20046;-74
2021/08/25 02:56:19;;;;;;;17.73;12.00;;;;;;;10.61;91.63;102796.28;5014792;28;20119;-73
2021/08/25 02:58:45;;;;;;;14.70;10.43;;;;;;;10.58;91.67;102792.88;5014566;28;20129;-73
2021/08/25 03:01:10;;;;;;;19.85;12.25;;;;;;;10.58;91.69;102791.97;5013787;28;20034;-73
2021/08/25 03:03:35;;;;;;;16.75;11.70;;;;;;;10.58;92.03;102790.19;5014828;28;20060;-73
2021/08/25 03:06:01;;;;;;;15.90;11.75;;;;;;;10.57;91.43;102782.31;5013573;28;20419;-73
2021/08/25 03:08:26;;;;;;;17.08;12.50;;;;;;;10.56;91.47;102786.75;5014664;28;20038;-73
2021/08/25 03:10:51;;;;;;;18.75;13.45;;;;;;;10.56;91.44;102776.09;4996686;28;20045;-73
2021/08/25 03:13:17;;;;;;;16.73;12.05;;;;;;;10.57;91.66;102791.13;5013352;28;20034;-73
2021/08/25 03:15:42;;;;;;;17.58;13.10;;;;;;;10.57;92.06;102787.63;5013990;28;20505;-73
2021/08/25 03:18:08;;;;;;;26.67;18.15;;;;;;;10.55;92.25;102782.41;4996054;28;20072;-73
2021/08/25 03:20:33;;;;;;;18.50;13.88;;;;;;;10.52;92.37;102787.88;5014151;28;20034;-73
2021/08/25 03:22:58;;;;;;;19.25;13.10;;;;;;;10.50;92.14;102781.81;5013481;28;20493;-73
2021/08/25 03:25:24;;;;;;;18.27;12.88;;;;;;;10.50;91.61;102778.28;5013894;28;20402;-73
2021/08/25 03:27:49;;;;;;;13.60;10.30;;;;;;;10.51;91.54;102779.97;5013816;28;20034;-73
2021/08/25 03:30:15;;;;;;;16.58;12.13;;;;;;;10.50;91.77;102770.31;5013463;28;20497;-73
2021/08/25 03:32:40;;;;;;;15.18;11.25;;;;;;;10.48;91.66;102769.53;5014267;28;20037;-73
2021/08/25 03:35:06;;;;;;;24.60;17.30;;;;;;;10.48;91.92;102769.53;5013198;28;20398;-73
2021/08/25 03:37:32;;;;;;;19.55;12.70;;;;;;;10.46;91.96;102774.94;4996341;28;20042;-74
2021/08/25 03:39:57;;;;;;;20.33;13.82;;;;;;;10.43;91.72;102767.13;5013398;28;20497;-73
2021/08/25 03:42:23;;;;;;;18.60;12.55;;;;;;;10.44;91.94;102773.34;5012870;28;20038;-74
2021/08/25 03:44:48;;;;;;;20.35;15.02;;;;;;;10.41;91.82;102771.72;4995863;28;20030;-73
2021/08/25 03:47:13;;;;;;;40.60;23.98;;;;;;;10.42;92.35;102770.75;5012950;28;20037;-73
2021/08/25 03:49:39;;;;;;;25.80;18.55;;;;;;;10.39;92.93;102771.81;5013440;28;20037;-74
2021/08/25 03:52:04;;;;;;;30.30;18.63;;;;;;;10.39;92.67;102765.63;4994704;28;20046;-74
2021/08/25 03:54:30;;;;;;;28.40;18.65;;;;;;;10.39;92.75;102768.28;5013677;28;20054;-73
2021/08/25 03:56:56;;;;;;;35.50;20.65;;;;;;;10.38;92.59;102770.06;4996011;28;20057;-73
2021/08/25 03:59:22;;;;;;;18.13;12.63;;;;;;;10.40;92.52;102762.88;5011837;28;20038;-73
2021/08/25 04:01:48;;;;;;;29.77;19.98;;;;;;;10.44;92.43;102752.88;5013277;28;20534;-73
2021/08/25 04:04:13;;;;;;;33.83;20.17;;;;;;;10.52;92.89;102750.63;5012624;28;20037;-74
2021/08/25 04:06:39;;;;;;;41.33;25.48;;;;;;;10.63;93.72;102759.75;5012978;28;20120;-74
2021/08/25 04:09:05;;;;;;;36.53;20.15;;;;;;;10.70;93.88;102747.78;5012502;28;20084;-74
2021/08/25 04:11:32;;;;;;;57.42;30.88;;;;;;;10.82;94.59;102748.84;5013294;28;20032;-74
2021/08/25 04:13:58;;;;;;;86.80;39.05;;;;;;;10.96;94.83;102750.66;5012947;28;20033;-74
2021/08/25 04:16:24;;;;;;;67.43;35.28;;;;;;;11.07;95.22;102741.06;5012353;28;20088;-73
2021/08/25 04:18:49;;;;;;;90.43;38.92;;;;;;;11.20;95.68;102730.50;5012989;28;20433;-73
2021/08/25 04:21:15;;;;;;;67.80;34.40;;;;;;;11.33;95.87;102732.38;5012332;28;20485;-74
2021/08/25 04:23:40;;;;;;;70.15;34.53;;;;;;;11.44;96.04;102725.41;5013105;28;20034;-73
2021/08/25 04:26:05;;;;;;;73.32;35.15;;;;;;;11.57;96.14;102725.47;5012301;28;20033;-74
2021/08/25 04:28:31;;;;;;;140.73;50.13;;;;;;;11.72;96.48;102726.28;5012614;28;20116;-74
2021/08/25 04:30:56;;;;;;;108.68;45.88;;;;;;;11.85;96.65;102725.47;5012863;28;20026;-73
2021/08/25 04:33:22;;;;;;;126.65;47.58;;;;;;;11.96;96.83;102731.84;5012155;28;20463;-74
2021/08/25 04:35:48;;;;;;;128.45;50.30;;;;;;;12.07;96.87;102728.44;4995306;28;20044;-73
2021/08/25 04:38:13;;;;;;;152.57;54.88;;;;;;;12.18;96.96;102733.06;5012168;28;20042;-74
2021/08/25 04:40:39;;;;;;;164.55;56.63;;;;;;;12.30;97.31;102726.03;5012768;28;20518;-74
2021/08/25 04:43:04;;;;;;;146.75;53.17;;;;;;;12.38;97.35;102730.88;4978891;28;20056;-74
2021/08/25 04:45:30;;;;;;;152.35;53.58;;;;;;;12.43;97.35;102734.91;5011918;28;20030;-74
2021/08/25 04:47:55;;;;;;;158.48;55.42;;;;;;;12.47;97.66;102723.06;5012477;28;20029;-73
2021/08/25 04:50:21;;;;;;;176.38;60.05;;;;;;;12.52;97.50;102726.31;5011792;28;20061;-74
2021/08/25 04:52:46;;;;;;;165.68;56.80;;;;;;;12.57;97.65;102727.78;5012527;28;20082;-74
2021/08/25 04:55:12;;;;;;;162.27;57.40;;;;;;;12.61;97.65;102731.94;5011740;28;20151;-75
2021/08/25 04:57:37;;;;;;;156.05;55.88;;;;;;;12.65;97.65;102733.44;5012480;28;20046;-74
2021/08/25 05:00:04;;;;;;;157.38;55.60;;;;;;;12.69;97.78;102733.13;5012270;28;20045;-74
2021/08/25 05:02:29;;;;;;;169.45;58.53;;;;;;;12.76;97.84;102732.69;4994201;28;20038;-74
2021/08/25 05:04:54;;;;;;;156.45;56.05;;;;;;;12.79;98.19;102732.47;5012295;28;20136;-74
2021/08/25 05:07:20;;;;;;;166.77;55.40;;;;;;;12.83;98.22;102732.16;5011436;28;20109;-74
2021/08/25 05:09:45;;;;;;;158.60;55.17;;;;;;;12.87;98.00;102728.31;5012685;28;20029;-74
2021/08/25 05:12:10;;;;;;;159.07;53.58;;;;;;;12.91;98.02;102723.59;5018245;28;20030;-74
2021/08/25 05:14:36;;;;;;;154.40;55.60;;;;;;;12.94;98.02;102720.69;5018779;28;20034;-74
2021/08/25 05:17:02;;;;;;;143.43;53.80;;;;;;;12.99;98.08;102731.94;5018914;28;20030;-74
2021/08/25 05:19:27;;;;;;;141.65;53.90;;;;;;;13.01;98.08;102730.00;5018145;28;20104;-74
2021/08/25 05:21:53;;;;;;;137.80;51.70;;;;;;;13.07;98.14;102730.53;5018580;28;20026;-74
2021/08/25 05:24:18;;;;;;;139.98;52.65;;;;;;;13.10;98.28;102731.16;5018194;28;20077;-73
2021/08/25 05:26:43;;;;;;;135.23;51.55;;;;;;;13.16;98.16;102736.06;5018638;28;20401;-74
2021/08/25 05:29:09;;;;;;;128.88;52.00;;;;;;;13.21;98.16;102736.59;5018458;28;20029;-74
2021/08/25 05:31:35;;;;;;;124.15;50.22;;;;;;;13.25;98.18;102739.91;5018405;28;20034;-73
2021/08/25 05:34:00;;;;;;;123.78;49.30;;;;;;;13.29;97.96;102736.06;5018466;28;20069;-74
2021/08/25 05:36:25;;;;;;;115.75;48.47;;;;;;;13.35;98.05;102732.13;5017951;28;20080;-74
2021/08/25 05:38:51;;;;;;;116.80;48.20;;;;;;;13.42;97.89;102728.03;5018578;28;20038;-74
2021/08/25 05:41:16;;;;;;;98.35;45.92;;;;;;;13.50;97.85;102735.50;5017989;28;20033;-74
2021/08/25 05:43:42;;;;;;;96.25;45.30;;;;;;;13.53;98.06;102729.94;5000923;28;20045;-74
2021/08/25 05:46:07;;;;;;;89.32;42.72;;;;;;;13.55;97.57;102731.53;5018513;28;20033;-74
2021/08/25 05:48:32;;;;;;;86.15;42.42;;;;;;;13.58;97.18;102731.28;5017708;28;20030;-74
2021/08/25 05:50:58;;;;;;;86.68;42.45;;;;;;;13.62;97.10;102731.91;5018292;28;20030;-74
2021/08/25 05:53:24;;;;;;;92.28;42.83;;;;;;;13.69;96.66;102735.84;5018047;28;20536;-74
2021/08/25 05:55:49;;;;;;;74.47;41.13;;;;;;;13.73;96.38;102737.34;5018104;28;20053;-74
2021/08/25 05:58:15;;;;;;;72.78;37.95;;;;;;;13.79;96.21;102736.00;5018381;28;20492;-74
2021/08/25 06:00:40;;;;;;;74.13;39.17;;;;;;;13.81;95.84;102738.56;5017741;28;20133;-74
2021/08/25 06:03:05;;;;;;;75.50;39.00;;;;;;;13.82;95.52;102737.59;5018122;28;20470;-74
2021/08/25 06:05:31;;;;;;;84.32;40.53;;;;;;;13.84;95.52;102735.66;5017754;28;20390;-74
2021/08/25 06:07:56;;;;;;;76.32;40.30;;;;;;;13.87;95.02;102741.66;5018306;28;20443;-74
2021/08/25 06:10:22;;;;;;;66.28;36.80;;;;;;;13.90;94.78;102738.75;5000181;28;20396;-74
2021/08/25 06:12:48;;;;;;;70.53;37.47;;;;;;;13.95;94.56;102737.56;5017142;28;20437;-74
2021/08/25 06:15:13;;;;;;;65.97;37.13;;;;;;;14.00;94.52;102740.72;5018388;28;20059;-74
2021/08/25 06:17:38;;;;;;;72.35;37.92;;;;;;;14.03;94.00;102733.34;5017725;28;20041;-73
2021/08/25 06:20:05;;;;;;;61.97;35.08;;;;;;;14.10;94.42;102744.41;5018078;28;20112;-74
2021/08/25 06:22:31;;;;;;;61.03;34.78;;;;;;;14.18;93.63;102741.16;5014545;28;20098;-74
2021/08/25 06:24:57;;;;;;;59.78;33.35;;;;;;;14.24;93.26;102735.34;5015114;28;20045;-73
2021/08/25 06:27:23;;;;;;;55.88;33.47;;;;;;;14.34;92.60;102738.19;4996617;28;20034;-74
2021/08/25 06:29:49;;;;;;;51.28;31.38;;;;;;;14.43;92.33;102740.13;4997541;28;20030;-73
2021/08/25 06:32:14;;;;;;;52.28;30.75;;;;;;;14.50;91.61;102736.03;5014929;28;20382;-74
2021/08/25 06:34:40;;;;;;;53.45;29.65;;;;;;;14.54;91.48;102739.31;4996945;28;20109;-74
2021/08/25 06:37:05;;;;;;;44.78;28.05;;;;;;;14.58;90.86;102738.09;5015096;28;20112;-73
2021/08/25 06:39:30;;;;;;;48.55;28.58;;;;;;;14.63;90.63;102744.00;4996799;28;20125;-74
2021/08/25 06:41:56;;;;;;;40.60;28.67;;;;;;;14.68;90.43;102743.66;5014830;28;20316;-74
2021/08/25 06:44:21;;;;;;;44.28;28.65;;;;;;;14.76;90.35;102747.44;5014319;28;20034;-74
2021/08/25 06:46:46;;;;;;;43.42;29.20;;;;;;;14.84;89.59;102749.50;5013812;28;20034;-73
2021/08/25 06:49:12;;;;;;;44.38;29.17;;;;;;;14.81;89.53;102749.75;5015837;28;20045;-74
2021/08/25 06:51:37;;;;;;;47.70;28.35;;;;;;;14.87;89.94;102748.38;5014063;28;20030;-74
2021/08/25 06:54:02;;;;;;;43.00;27.75;;;;;;;14.94;89.81;102749.63;5014642;28;20095;-74
2021/08/25 06:56:28;;;;;;;37.80;25.92;;;;;;;15.08;89.64;102754.75;5014207;28;20435;-75
2021/08/25 06:58:53;;;;;;;39.90;27.27;;;;;;;15.20;88.13;102752.91;5015147;28;20048;-74
2021/08/25 07:01:20;;;;;;;38.58;25.30;;;;;;;15.27;87.21;102754.13;4997266;28;20382;-74
2021/08/25 07:03:45;;;;;;;33.50;23.85;;;;;;;15.39;87.18;102749.59;5013988;28;20125;-74
2021/08/25 07:06:10;;;;;;;31.85;22.27;;;;;;;15.47;85.70;102749.81;5014434;28;20062;-74
2021/08/25 07:08:36;;;;;;;33.95;23.65;;;;;;;15.56;85.29;102747.38;5013759;28;20440;-75
2021/08/25 07:11:01;;;;;;;35.88;23.55;;;;;;;15.63;85.62;102754.78;5014687;28;20033;-74
2021/08/25 07:13:27;;;;;;;34.42;24.50;;;;;;;15.78;85.75;102751.84;5014120;28;20041;-74
2021/08/25 07:15:52;;;;;;;34.42;21.50;;;;;;;15.98;85.04;102751.03;5014415;28;20030;-74
2021/08/25 07:18:18;;;;;;;32.75;22.80;;;;;;;16.24;83.90;102748.00;5014109;28;20394;-73
2021/08/25 07:20:44;;;;;;;29.10;20.85;;;;;;;16.32;82.66;102750.88;5013601;28;20036;-74
2021/08/25 07:23:10;;;;;;;36.67;20.20;;;;;;;16.34;82.04;102746.22;5013772;28;20466;-74
2021/08/25 07:25:35;;;;;;;28.35;20.48;;;;;;;16.28;82.38;102748.59;5013713;28;20044;-75
2021/08/25 07:28:00;;;;;;;26.67;19.65;;;;;;;16.25;82.01;102749.69;5013766;28;20030;-74
2021/08/25 07:30:26;;;;;;;26.85;20.52;;;;;;;16.21;82.60;102753.63;4996523;28;20417;-74
2021/08/25 07:32:51;;;;;;;27.95;20.88;;;;;;;16.26;82.68;102750.53;4995723;28;20034;-75
2021/08/25 07:35:16;;;;;;;25.77;19.33;;;;;;;16.44;82.45;102754.38;5014010;28;20030;-74
2021/08/25 07:37:42;;;;;;;28.90;19.45;;;;;;;16.61;81.49;102754.75;5013221;28;20126;-74
2021/08/25 07:40:08;;;;;;;28.95;19.60;;;;;;;16.80;80.46;102754.84;5014147;28;20474;-75
2021/08/25 07:42:34;;;;;;;26.35;19.13;;;;;;;16.95;80.49;102747.31;5013309;28;20057;-75
2021/08/25 07:45:00;;;;;;;27.48;20.02;;;;;;;17.14;78.78;102749.25;5013924;28;20034;-74
2021/08/25 07:47:25;;;;;;;28.50;20.23;;;;;;;17.35;79.48;102745.63;5013807;28;20104;-74
2021/08/25 07:49:50;;;;;;;23.60;18.40;;;;;;;17.50;77.38;102741.56;4995040;28;20070;-74
2021/08/25 07:52:16;;;;;;;24.15;17.45;;;;;;;17.74;76.31;102740.31;5013509;28;20044;-75
2021/08/25 07:54:41;;;;;;;21.83;17.35;;;;;;;17.90;74.36;102735.25;5012843;28;20172;-74
2021/08/25 07:57:07;;;;;;;28.17;17.38;;;;;;;18.01;76.42;102741.50;4995525;28;20514;-72
2021/08/25 07:59:32;;;;;;;21.60;16.23;;;;;;;18.00;74.71;102737.94;5013000;28;20485;-74
2021/08/25 08:01:58;;;;;;;22.00;17.20;;;;;;;18.12;75.72;102738.63;5013490;28;20092;-73
2021/08/25 08:04:24;;;;;;;25.40;16.50;;;;;;;18.08;75.38;102737.25;5013657;28;20026;-73
2021/08/25 08:06:49;;;;;;;19.65;15.32;;;;;;;17.90;73.77;102742.47;5012834;28;20081;-73
2021/08/25 08:09:15;;;;;;;19.88;15.20;;;;;;;17.90;75.61;102743.34;5013187;28;20061;-73
2021/08/25 08:11:40;;;;;;;20.20;15.15;;;;;;;17.87;75.44;102743.59;5012913;28;20356;-74
2021/08/25 08:14:07;;;;;;;24.10;14.52;;;;;;;17.82;75.41;102736.91;5012425;28;20045;-73
2021/08/25 08:16:35;;;;;;;21.70;14.50;;;;;;;17.69;75.55;102732.66;5012858;28;20087;-73
2021/08/25 08:19:18;;;;;;;20.27;14.55;;;;;;;17.70;75.33;102734.34;4995504;28;20033;-73
2021/08/25 08:21:44;;;;;;;18.33;12.68;;;;;;;17.86;74.50;102732.97;4995005;28;20034;-73
2021/08/25 08:24:09;;;;;;;19.40;12.75;;;;;;;17.95;75.05;102732.13;5012764;28;20455;-73
2021/08/25 08:26:35;;;;;;;16.30;12.25;;;;;;;17.94;73.51;102725.03;5012601;28;20045;-75
2021/08/25 08:29:00;;;;;;;15.90;11.23;;;;;;;17.97;73.67;102732.81;5013244;28;20037;-74
2021/08/25 08:31:27;;;;;;;17.92;11.25;;;;;;;18.14;73.31;102729.44;5012892;28;20391;-75
2021/08/25 08:33:53;;;;;;;17.33;11.80;;;;;;;18.21;72.86;102727.00;5012450;28;20034;-75
2021/08/25 08:36:18;;;;;;;15.30;11.35;;;;;;;18.15;73.31;102719.50;5013093;28;20077;-75
2021/08/25 08:38:44;;;;;;;19.60;11.25;;;;;;;18.04;73.43;102722.34;5012082;28;20421;-73
2021/08/25 08:41:09;;;;;;;16.33;11.15;;;;;;;17.97;74.59;102722.06;5013021;28;20038;-74
2021/08/25 08:43:41;;;;;;;13.38;10.68;;;;;;;18.05;73.69;102726.72;5012777;28;20117;-74
2021/08/25 08:46:07;;;;;;;15.98;9.55;;;;;;;18.51;71.54;102725.09;5012097;28;20368;-74
2021/08/25 08:48:34;;;;;;;15.35;9.57;;;;;;;19.01;67.29;102718.56;5012885;28;20037;-74
2021/08/25 08:51:01;;;;;;;12.55;8.70;;;;;;;19.52;67.94;102714.41;5012160;28;20121;-75
2021/08/25 08:53:27;;;;;;;14.77;9.73;;;;;;;19.95;64.30;102706.59;5012464;28;20037;-74
2021/08/25 08:55:52;;;;;;;14.38;8.05;;;;;;;20.31;62.68;102711.09;5012212;28;20103;-74
2021/08/25 08:58:18;;;;;;;12.70;8.02;;;;;;;20.55;63.12;102707.69;5012814;28;20041;-74
2021/08/25 09:00:43;;;;;;;11.20;7.60;;;;;;;21.04;59.82;102705.25;4994592;28;20136;-75
2021/08/25 09:03:28;;;;;;;12.38;6.63;;;;;;;21.86;57.91;102698.34;5012840;28;20037;-74
2021/08/25 09:06:00;;;;;;;12.35;5.40;;;;;;;22.45;54.95;102709.84;5011940;28;20033;-74
2021/08/25 09:08:31;;;;;;;10.52;4.90;;;;;;;22.19;55.21;102696.44;5012593;28;20030;-73
2021/08/25 09:11:01;;;;;;;12.48;4.63;;;;;;;21.53;57.83;102696.44;5011820;28;20488;-74
2021/08/25 09:13:52;;;;;;;7.57;4.43;;;;;;;20.90;59.16;102695.03;5012396;28;20072;-74
2021/08/25 09:16:35;;;;;;;8.68;4.60;;;;;;;20.30;61.01;102690.47;5009281;28;20092;-74
2021/08/25 09:19:13;;;;;;;9.35;4.47;;;;;;;19.59;62.46;102682.28;5011923;28;20117;-75
2021/08/25 09:21:45;;;;;;;6.72;5.00;;;;;;;19.63;62.93;102672.00;5012490;28;20030;-74
2021/08/25 09:24:13;;;;;;;9.57;5.18;;;;;;;21.74;57.30;102682.41;5012086;28;20038;-75
2021/08/25 09:27:05;;;;;;;10.05;4.90;;;;;;;24.26;48.37;102676.16;5012303;28;20060;-74
2021/08/25 09:29:30;;;;;;;8.15;4.45;;;;;;;25.63;45.51;102669.28;5012417;28;20028;-74
2021/08/25 09:31:56;;;;;;;11.07;4.35;;;;;;;26.56;41.37;102677.31;4993907;28;20026;-74
2021/08/25 09:34:30;;;;;;;9.18;4.85;;;;;;;26.73;39.52;102672.38;5012208;28;20457;-74
2021/08/25 09:37:11;;;;;;;7.25;4.22;;;;;;;27.33;39.92;102671.75;5011649;28;20030;-75
2021/08/25 09:39:45;;;;;;;7.10;4.28;;;;;;;27.41;39.99;102665.28;5012604;28;20030;-74
2021/08/25 09:42:12;;;;;;;6.03;4.30;;;;;;;27.92;37.19;102661.91;5012402;28;20034;-75
2021/08/25 09:44:38;;;;;;;6.47;3.80;;;;;;;27.88;38.17;102668.84;5012258;28;20104;-75
2021/08/25 09:47:04;;;;;;;7.22;3.95;;;;;;;28.28;39.40;102665.28;5011263;28;20034;-74
2021/08/25 09:49:29;;;;;;;7.70;4.05;;;;;;;28.45;37.92;102665.63;5012227;28;20490;-74
2021/08/25 09:51:55;;;;;;;7.65;3.80;;;;;;;28.71;37.44;102672.09;5011380;28;20363;-75
2021/08/25 09:54:21;;;;;;;6.80;3.85;;;;;;;27.64;37.61;102677.72;5011582;28;20057;-74
2021/08/25 09:56:52;;;;;;;9.25;3.55;;;;;;;25.46;42.27;102682.31;5011937;28;20181;-72
2021/08/25 09:59:18;;;;;;;5.13;3.22;;;;;;;23.61;47.84;102679.44;5015921;28;20034;-72
2021/08/25 10:01:45;;;;;;;7.97;3.90;;;;;;;22.42;49.76;102676.78;4998470;28;20030;-73
2021/08/25 10:04:13;;;;;;;5.25;3.72;;;;;;;21.41;53.90;102682.34;5015088;28;20053;-73
2021/08/25 10:06:41;;;;;;;5.35;3.63;;;;;;;21.20;55.38;102673.81;5015710;28;20512;-73
2021/08/25 10:09:08;;;;;;;10.00;3.50;;;;;;;23.07;50.77;102670.25;5015213;28;20038;-73
2021/08/25 10:11:37;;;;;;;7.28;3.50;;;;;;;25.45;45.03;102668.88;5015792;28;20033;-73
2021/08/25 10:14:07;;;;;;;9.23;3.58;;;;;;;26.99;39.33;102667.22;5015070;28;20033;-72
2021/08/25 10:16:43;;;;;;;5.72;2.78;;;;;;;27.55;39.32;102668.88;5015847;28;20030;-73
2021/08/25 10:19:29;;;;;;;5.22;2.83;;;;;;;26.85;39.09;102660.91;5014912;28;20025;-73
2021/08/25 10:21:58;;;;;;;6.40;2.83;;;;;;;27.20;40.01;102655.31;5014840;28;20184;-75
2021/08/25 10:24:23;;;;;;;5.00;2.47;;;;;;;27.50;39.56;102652.22;5015610;28;20061;-75
2021/08/25 10:27:06;;;;;;;6.72;2.83;;;;;;;26.74;40.09;102649.50;5015268;28;20069;-72
2021/08/25 10:29:32;;;;;;;4.60;2.53;;;;;;;26.49;41.34;102645.59;5015158;28;20101;-71
2021/08/25 10:32:03;;;;;;;5.40;2.40;;;;;;;26.97;40.95;102640.13;5014466;28;20029;-72
2021/08/25 10:34:38;;;;;;;6.90;2.72;;;;;;;26.87;40.12;102632.34;5015088;28;20030;-72
2021/08/25 10:37:13;;;;;;;4.28;2.47;;;;;;;26.90;39.79;102618.28;5014648;28;20030;-72
2021/08/25 10:39:41;;;;;;;4.10;2.35;;;;;;;27.18;40.00;102624.63;5015113;28;20034;-72
2021/08/25 10:42:08;;;;;;;7.65;2.58;;;;;;;27.35;39.45;102623.22;5014281;28;20041;-71
2021/08/25 10:44:54;;;;;;;6.82;2.42;;;;;;;27.47;39.16;102612.53;5015024;28;20041;-72
2021/08/25 10:47:59;;;;;;;6.68;2.85;;;;;;;27.14;39.49;102615.16;5014390;28;20046;-72
2021/08/25 10:50:48;;;;;;;8.95;2.80;;;;;;;27.30;39.69;102617.50;5014925;28;20034;-71
2021/08/25 10:53:29;;;;;;;7.82;2.30;;;;;;;28.02;38.47;102616.91;5014167;28;20124;-72
2021/08/25 10:56:26;;;;;;;8.20;2.45;;;;;;;27.90;38.12;102612.06;5014228;28;20041;-72
2021/08/25 10:59:17;;;;;;;4.30;2.20;;;;;;;27.88;37.58;102610.59;5014945;28;20053;-72
2021/08/25 11:01:48;;;;;;;6.00;1.98;;;;;;;27.79;37.54;102616.28;5014678;28;20088;-72
2021/08/25 11:04:19;;;;;;;3.45;2.03;;;;;;;27.73;38.70;102605.34;5013991;28;20034;-71
2021/08/25 11:06:51;;;;;;;6.10;2.50;;;;;;;28.13;36.79;102603.41;5014779;28;20057;-71
2021/08/25 11:09:21;;;;;;;5.07;2.20;;;;;;;28.32;38.43;102603.59;5013436;28;20478;-72
2021/08/25 11:11:49;;;;;;;7.72;2.55;;;;;;;27.67;36.63;102600.75;5014594;28;20026;-72